Terminal Aerodrome Forecast
Issued by NWS

Home | Current Version | Previous Version | Text Only | Print | Product List | Glossary On
Versions: 1 2 3 4 5 6 7 8 9 10 11 12 13
000
FTAK31 PAJN 260500
TAFAWG
TAF
PAWG 260526Z 2606/2706 14006KT 6SM -RA FEW010 BKN050 OVC070
      TEMPO 2606/2610 VRB04KT 4SM -RA BR FEW006 BKN025 OVC040
     FM261300 11006KT 5SM -RA BR SCT010 BKN030 OVC040
     FM262200 13006KT 6SM -RA BKN030 OVC050
      AMD LTD TO CLD VIS AND WIND 2606/2615=

USA.gov is the U.S. government's official web portal to all federal, state and local government web resources and services.